Terminal Aerodrome Forecast
Issued by NWS

Home | Current Version | Previous Version | Graphics & Text | Print | Product List | Glossary On
Versions: 1 2 3 4 5 6 7 8 9 10 11 12 13 14 15 16 17 18 19 20 21 22 23 24
000
FTUS43 KABR 150600 AAA
TAFATY
TAF AMD
KATY 150639Z 1507/1606 33014KT P6SM -FZDZ OVC005
      TEMPO 1507/1511 3SM -FZDZ BR OVC003
     FM151100 35020G30KT 3SM -FZDZ BR OVC003
     FM151600 36020G30KT 1SM -SN BR OVC007
     FM160300 35020KT P6SM OVC015=

USA.gov is the U.S. government's official web portal to all federal, state and local government web resources and services.